SAS449 ENSB-ENZV
Flight info
| Callsign | SAS449 |
|---|---|
| Flight time | N/A |
| Altitude | 38000 |
| Route | SUSES DCT 75N012E 70N009E/N0461F360 DCT XELRU DCT UPDER |
| Aircraft | B738/M-SDE2E3FGHIRWXY/LB1 |
Departure
| Time | 2026-05-07 12:29 |
|---|---|
| Airport | Svalbard Airport, Longyear (ENSB) |
Arrival
| Time | N/A |
|---|---|
| Airport | Stavanger Airport, Sola (ENZV) |
| Time | Latitude | Longitude | Altitude | Speed | Heading |
|---|---|---|---|---|---|
| 2026-05-07 12:25 | 78.24901 | 15.41407 | 86 ft | 0 kts | 105° |
| 2026-05-07 12:28 | 78.24899 | 15.41426 | 86 ft | 8 kts | 105° |
| 2026-05-07 12:28 | 78.24805 | 15.43110 | 92 ft | 93 kts | 105° |
| 2026-05-07 12:28 | 78.24567 | 15.47323 | 103 ft | 161 kts | 105° |
| 2026-05-07 12:29 | 78.24259 | 15.52738 | 883 ft | 168 kts | 106° |
| 2026-05-07 12:29 | 78.23917 | 15.58557 | 1697 ft | 190 kts | 106° |
| 2026-05-07 12:29 | 78.23540 | 15.64982 | 2492 ft | 199 kts | 103° |
| 2026-05-07 12:29 | 78.23049 | 15.71492 | 3000 ft | 223 kts | 124° |
| 2026-05-07 12:30 | 78.22029 | 15.77921 | 3502 ft | 249 kts | 126° |
| 2026-05-07 12:30 | 78.20905 | 15.84504 | 4601 ft | 253 kts | 140° |
| 2026-05-07 12:30 | 78.19270 | 15.87673 | 5699 ft | 261 kts | 176° |
| 2026-05-07 12:30 | 78.17499 | 15.86043 | 6758 ft | 267 kts | 199° |
| 2026-05-07 12:31 | 78.15759 | 15.82546 | 7680 ft | 273 kts | 203° |
| 2026-05-07 12:31 | 78.14023 | 15.78715 | 8636 ft | 278 kts | 204° |
| 2026-05-07 12:31 | 78.12247 | 15.74757 | 9601 ft | 282 kts | 203° |
| 2026-05-07 12:31 | 78.10430 | 15.70750 | 10510 ft | 288 kts | 203° |
| 2026-05-07 12:32 | 78.08559 | 15.66681 | 10929 ft | 310 kts | 203° |
| 2026-05-07 12:32 | 78.06495 | 15.62251 | 11167 ft | 336 kts | 202° |
| 2026-05-07 12:32 | 78.04310 | 15.57602 | 11863 ft | 345 kts | 202° |
| 2026-05-07 12:32 | 78.02115 | 15.52965 | 12717 ft | 349 kts | 202° |
| 2026-05-07 12:33 | 77.97581 | 15.43476 | 14398 ft | 359 kts | 202° |
| 2026-05-07 12:33 | 77.95292 | 15.38722 | 15155 ft | 363 kts | 202° |
| 2026-05-07 12:33 | 77.92959 | 15.33899 | 15960 ft | 367 kts | 202° |
| 2026-05-07 12:34 | 77.90617 | 15.29076 | 16734 ft | 372 kts | 202° |
| 2026-05-07 12:34 | 77.88222 | 15.24158 | 17506 ft | 376 kts | 202° |
| 2026-05-07 12:34 | 77.85798 | 15.19209 | 18286 ft | 381 kts | 202° |
| 2026-05-07 12:34 | 77.83334 | 15.14205 | 18969 ft | 386 kts | 202° |
| 2026-05-07 12:35 | 77.80852 | 15.09610 | 19604 ft | 390 kts | 197° |
| 2026-05-07 12:35 | 77.78245 | 15.05862 | 20296 ft | 392 kts | 194° |
| 2026-05-07 12:35 | 77.75593 | 15.02355 | 20959 ft | 396 kts | 194° |
| 2026-05-07 12:35 | 77.72941 | 14.98938 | 21586 ft | 400 kts | 194° |
| 2026-05-07 12:36 | 77.70229 | 14.95447 | 22213 ft | 405 kts | 194° |
| 2026-05-07 12:36 | 77.67483 | 14.91889 | 22851 ft | 409 kts | 194° |
| 2026-05-07 12:36 | 77.64753 | 14.88330 | 23474 ft | 413 kts | 194° |
| 2026-05-07 12:36 | 77.61966 | 14.84680 | 24036 ft | 417 kts | 194° |
| 2026-05-07 12:37 | 77.59156 | 14.80996 | 24536 ft | 420 kts | 194° |
| 2026-05-07 12:37 | 77.56364 | 14.77341 | 25044 ft | 423 kts | 194° |
| 2026-05-07 12:37 | 77.53507 | 14.73611 | 25595 ft | 425 kts | 194° |
| 2026-05-07 12:37 | 77.50666 | 14.69917 | 26101 ft | 428 kts | 194° |
| 2026-05-07 12:38 | 77.47765 | 14.66163 | 26565 ft | 432 kts | 194° |
| 2026-05-07 12:38 | 77.44855 | 14.62415 | 27015 ft | 435 kts | 194° |
| 2026-05-07 12:38 | 77.41953 | 14.58696 | 27457 ft | 438 kts | 194° |
| 2026-05-07 12:38 | 77.38991 | 14.54918 | 27918 ft | 441 kts | 194° |
| 2026-05-07 12:39 | 77.36017 | 14.51144 | 28358 ft | 444 kts | 194° |
| 2026-05-07 12:39 | 77.33058 | 14.47406 | 28762 ft | 448 kts | 194° |
| 2026-05-07 12:39 | 77.30039 | 14.43612 | 29178 ft | 451 kts | 194° |
| 2026-05-07 12:39 | 77.27002 | 14.39813 | 29572 ft | 453 kts | 194° |
| 2026-05-07 12:40 | 77.23968 | 14.36037 | 29953 ft | 456 kts | 194° |
| 2026-05-07 12:40 | 77.20886 | 14.32220 | 30318 ft | 459 kts | 194° |
| 2026-05-07 12:40 | 77.17795 | 14.28409 | 30642 ft | 461 kts | 194° |
| 2026-05-07 12:40 | 77.15741 | 14.25888 | 30859 ft | 461 kts | 194° |
| 2026-05-07 12:41 | 77.12624 | 14.22077 | 31228 ft | 461 kts | 194° |
| 2026-05-07 12:41 | 77.09549 | 14.18335 | 31621 ft | 461 kts | 194° |
| 2026-05-07 12:41 | 77.06441 | 14.14573 | 31994 ft | 461 kts | 194° |
| 2026-05-07 12:41 | 77.03361 | 14.10862 | 32307 ft | 462 kts | 194° |
| 2026-05-07 12:42 | 77.00248 | 14.07130 | 32636 ft | 462 kts | 194° |
| 2026-05-07 12:42 | 76.97161 | 14.03448 | 32991 ft | 462 kts | 194° |
| 2026-05-07 12:42 | 76.94043 | 13.99745 | 33347 ft | 462 kts | 194° |
| 2026-05-07 12:42 | 76.90921 | 13.96057 | 33658 ft | 462 kts | 194° |
| 2026-05-07 12:43 | 76.87830 | 13.92423 | 33957 ft | 463 kts | 194° |
| 2026-05-07 12:43 | 76.84706 | 13.88768 | 34282 ft | 463 kts | 194° |
| 2026-05-07 12:43 | 76.81628 | 13.85183 | 34569 ft | 462 kts | 194° |
| 2026-05-07 12:43 | 76.78511 | 13.81570 | 34859 ft | 461 kts | 194° |
| 2026-05-07 12:44 | 76.75400 | 13.77981 | 35079 ft | 461 kts | 194° |
| 2026-05-07 12:44 | 76.72284 | 13.74405 | 35302 ft | 462 kts | 194° |
| 2026-05-07 12:44 | 76.69210 | 13.70893 | 35544 ft | 462 kts | 194° |
| 2026-05-07 12:44 | 76.66101 | 13.67357 | 35813 ft | 461 kts | 194° |
| 2026-05-07 12:45 | 76.62977 | 13.63822 | 36058 ft | 460 kts | 194° |
| 2026-05-07 12:45 | 76.59904 | 13.60361 | 36270 ft | 461 kts | 194° |
| 2026-05-07 12:45 | 76.56788 | 13.56868 | 36457 ft | 462 kts | 194° |
| 2026-05-07 12:45 | 76.53672 | 13.53391 | 36691 ft | 461 kts | 194° |
| 2026-05-07 12:46 | 76.50596 | 13.49975 | 36946 ft | 460 kts | 194° |
| 2026-05-07 12:46 | 76.47487 | 13.46534 | 37114 ft | 461 kts | 193° |
| 2026-05-07 12:46 | 76.46432 | 13.45373 | 37146 ft | 462 kts | 193° |